sensor_id;sensor_type;location;lat;lon;timestamp;P1;durP1;ratioP1;P2;durP2;ratioP2
4422;SDS011;2224;49.814;8.650;2023-06-10T00:01:35;15.30;;;14.00;;
4422;SDS011;2224;49.814;8.650;2023-06-10T00:04:01;15.43;;;14.13;;
4422;SDS011;2224;49.814;8.650;2023-06-10T00:06:27;15.10;;;13.90;;
4422;SDS011;2224;49.814;8.650;2023-06-10T00:08:53;15.80;;;14.60;;
4422;SDS011;2224;49.814;8.650;2023-06-10T00:11:19;15.27;;;13.97;;
4422;SDS011;2224;49.814;8.650;2023-06-10T00:13:46;14.17;;;13.07;;
4422;SDS011;2224;49.814;8.650;2023-06-10T00:16:11;15.90;;;14.43;;
4422;SDS011;2224;49.814;8.650;2023-06-10T00:18:37;15.63;;;14.30;;
4422;SDS011;2224;49.814;8.650;2023-06-10T00:21:03;13.70;;;12.60;;
4422;SDS011;2224;49.814;8.650;2023-06-10T00:23:29;14.60;;;13.43;;
4422;SDS011;2224;49.814;8.650;2023-06-10T00:25:56;15.03;;;13.70;;
4422;SDS011;2224;49.814;8.650;2023-06-10T00:28:22;17.23;;;15.67;;
4422;SDS011;2224;49.814;8.650;2023-06-10T00:30:48;15.63;;;14.20;;
4422;SDS011;2224;49.814;8.650;2023-06-10T00:33:13;14.23;;;12.97;;
4422;SDS011;2224;49.814;8.650;2023-06-10T00:35:38;14.70;;;13.17;;
4422;SDS011;2224;49.814;8.650;2023-06-10T00:38:04;15.43;;;13.83;;
4422;SDS011;2224;49.814;8.650;2023-06-10T00:40:29;14.90;;;13.70;;
4422;SDS011;2224;49.814;8.650;2023-06-10T00:42:55;14.23;;;12.97;;
4422;SDS011;2224;49.814;8.650;2023-06-10T00:45:20;16.17;;;14.50;;
4422;SDS011;2224;49.814;8.650;2023-06-10T00:47:45;15.27;;;13.77;;
4422;SDS011;2224;49.814;8.650;2023-06-10T00:50:10;14.70;;;13.40;;
4422;SDS011;2224;49.814;8.650;2023-06-10T00:52:37;15.27;;;13.93;;
4422;SDS011;2224;49.814;8.650;2023-06-10T00:55:02;14.87;;;13.40;;
4422;SDS011;2224;49.814;8.650;2023-06-10T00:57:28;14.53;;;13.33;;
4422;SDS011;2224;49.814;8.650;2023-06-10T00:59:54;14.90;;;13.60;;
4422;SDS011;2224;49.814;8.650;2023-06-10T01:02:19;16.83;;;15.17;;
4422;SDS011;2224;49.814;8.650;2023-06-10T01:04:44;16.23;;;14.30;;
4422;SDS011;2224;49.814;8.650;2023-06-10T01:07:26;14.90;;;13.43;;
4422;SDS011;2224;49.814;8.650;2023-06-10T01:15:14;14.93;;;13.80;;
4422;SDS011;2224;49.814;8.650;2023-06-10T01:17:55;16.03;;;14.73;;
4422;SDS011;2224;49.814;8.650;2023-06-10T01:20:25;16.70;;;13.77;;
4422;SDS011;2224;49.814;8.650;2023-06-10T01:22:52;15.57;;;14.37;;
4422;SDS011;2224;49.814;8.650;2023-06-10T01:25:22;15.37;;;14.03;;
4422;SDS011;2224;49.814;8.650;2023-06-10T01:30:41;15.40;;;14.00;;
4422;SDS011;2224;49.814;8.650;2023-06-10T01:33:41;16.20;;;14.80;;
4422;SDS011;2224;49.814;8.650;2023-06-10T01:36:08;15.93;;;14.10;;
4422;SDS011;2224;49.814;8.650;2023-06-10T01:38:36;15.10;;;14.00;;
4422;SDS011;2224;49.814;8.650;2023-06-10T01:41:07;16.73;;;15.00;;
4422;SDS011;2224;49.814;8.650;2023-06-10T01:43:33;16.03;;;14.70;;
4422;SDS011;2224;49.814;8.650;2023-06-10T01:45:59;16.90;;;15.20;;
4422;SDS011;2224;49.814;8.650;2023-06-10T01:48:24;16.03;;;14.37;;
4422;SDS011;2224;49.814;8.650;2023-06-10T01:50:50;16.67;;;15.07;;
4422;SDS011;2224;49.814;8.650;2023-06-10T01:53:15;16.63;;;15.33;;
4422;SDS011;2224;49.814;8.650;2023-06-10T01:55:40;16.43;;;15.10;;
4422;SDS011;2224;49.814;8.650;2023-06-10T01:58:06;16.37;;;15.03;;
4422;SDS011;2224;49.814;8.650;2023-06-10T02:00:31;15.57;;;14.37;;
4422;SDS011;2224;49.814;8.650;2023-06-10T02:02:57;15.60;;;14.33;;
4422;SDS011;2224;49.814;8.650;2023-06-10T02:05:22;15.87;;;14.57;;
4422;SDS011;2224;49.814;8.650;2023-06-10T02:07:48;15.37;;;14.17;;
4422;SDS011;2224;49.814;8.650;2023-06-10T02:10:13;16.50;;;15.10;;
4422;SDS011;2224;49.814;8.650;2023-06-10T02:12:38;16.37;;;15.00;;
4422;SDS011;2224;49.814;8.650;2023-06-10T02:15:04;15.63;;;14.23;;
4422;SDS011;2224;49.814;8.650;2023-06-10T02:17:29;16.17;;;14.80;;
4422;SDS011;2224;49.814;8.650;2023-06-10T02:19:55;16.63;;;15.00;;
4422;SDS011;2224;49.814;8.650;2023-06-10T02:22:22;16.43;;;14.93;;
4422;SDS011;2224;49.814;8.650;2023-06-10T02:24:49;16.27;;;14.97;;
4422;SDS011;2224;49.814;8.650;2023-06-10T02:27:15;15.10;;;13.83;;
4422;SDS011;2224;49.814;8.650;2023-06-10T02:29:41;15.90;;;14.60;;
4422;SDS011;2224;49.814;8.650;2023-06-10T02:32:07;16.47;;;15.07;;
4422;SDS011;2224;49.814;8.650;2023-06-10T02:34:32;16.20;;;14.80;;
4422;SDS011;2224;49.814;8.650;2023-06-10T02:36:58;15.40;;;14.20;;
4422;SDS011;2224;49.814;8.650;2023-06-10T02:39:24;16.20;;;14.93;;
4422;SDS011;2224;49.814;8.650;2023-06-10T02:41:49;14.77;;;13.47;;
4422;SDS011;2224;49.814;8.650;2023-06-10T02:44:15;14.10;;;12.93;;
4422;SDS011;2224;49.814;8.650;2023-06-10T02:46:40;15.87;;;14.47;;
4422;SDS011;2224;49.814;8.650;2023-06-10T02:49:05;17.60;;;14.53;;
4422;SDS011;2224;49.814;8.650;2023-06-10T02:51:31;15.30;;;13.90;;
4422;SDS011;2224;49.814;8.650;2023-06-10T02:53:56;15.67;;;14.17;;
4422;SDS011;2224;49.814;8.650;2023-06-10T02:56:21;15.57;;;13.97;;
4422;SDS011;2224;49.814;8.650;2023-06-10T02:58:47;14.53;;;13.27;;
4422;SDS011;2224;49.814;8.650;2023-06-10T03:01:13;15.50;;;14.20;;
4422;SDS011;2224;49.814;8.650;2023-06-10T03:03:39;14.90;;;13.60;;
4422;SDS011;2224;49.814;8.650;2023-06-10T03:06:07;15.43;;;14.13;;
4422;SDS011;2224;49.814;8.650;2023-06-10T03:08:35;15.10;;;13.80;;
4422;SDS011;2224;49.814;8.650;2023-06-10T03:11:00;16.53;;;15.13;;
4422;SDS011;2224;49.814;8.650;2023-06-10T03:13:26;15.87;;;14.57;;
4422;SDS011;2224;49.814;8.650;2023-06-10T03:15:51;14.50;;;13.33;;
4422;SDS011;2224;49.814;8.650;2023-06-10T03:18:16;15.97;;;14.63;;
4422;SDS011;2224;49.814;8.650;2023-06-10T03:20:42;15.90;;;14.37;;
4422;SDS011;2224;49.814;8.650;2023-06-10T03:23:09;15.90;;;14.53;;
4422;SDS011;2224;49.814;8.650;2023-06-10T03:25:34;15.67;;;14.37;;
4422;SDS011;2224;49.814;8.650;2023-06-10T03:28:00;16.43;;;14.97;;
4422;SDS011;2224;49.814;8.650;2023-06-10T03:30:25;15.83;;;14.53;;
4422;SDS011;2224;49.814;8.650;2023-06-10T03:32:51;15.90;;;14.40;;
4422;SDS011;2224;49.814;8.650;2023-06-10T03:35:17;17.20;;;15.60;;
4422;SDS011;2224;49.814;8.650;2023-06-10T03:37:42;16.30;;;15.00;;
4422;SDS011;2224;49.814;8.650;2023-06-10T03:40:08;16.73;;;15.13;;
4422;SDS011;2224;49.814;8.650;2023-06-10T03:42:34;16.73;;;15.37;;
4422;SDS011;2224;49.814;8.650;2023-06-10T03:44:59;15.10;;;13.90;;
4422;SDS011;2224;49.814;8.650;2023-06-10T03:47:25;17.40;;;15.90;;
4422;SDS011;2224;49.814;8.650;2023-06-10T03:49:50;15.20;;;13.83;;
4422;SDS011;2224;49.814;8.650;2023-06-10T03:52:15;15.60;;;14.20;;
4422;SDS011;2224;49.814;8.650;2023-06-10T03:54:41;15.70;;;14.47;;
4422;SDS011;2224;49.814;8.650;2023-06-10T03:57:06;15.23;;;13.90;;
4422;SDS011;2224;49.814;8.650;2023-06-10T03:59:31;14.50;;;13.07;;
4422;SDS011;2224;49.814;8.650;2023-06-10T04:01:57;16.00;;;14.53;;
4422;SDS011;2224;49.814;8.650;2023-06-10T04:04:22;15.93;;;14.47;;
4422;SDS011;2224;49.814;8.650;2023-06-10T04:06:48;16.40;;;15.00;;
4422;SDS011;2224;49.814;8.650;2023-06-10T04:09:14;16.87;;;15.37;;
4422;SDS011;2224;49.814;8.650;2023-06-10T04:11:40;16.17;;;14.77;;
4422;SDS011;2224;49.814;8.650;2023-06-10T04:14:06;15.90;;;14.60;;
4422;SDS011;2224;49.814;8.650;2023-06-10T04:16:31;16.47;;;14.83;;
4422;SDS011;2224;49.814;8.650;2023-06-10T04:18:56;15.00;;;13.80;;
4422;SDS011;2224;49.814;8.650;2023-06-10T04:21:21;16.20;;;14.80;;
4422;SDS011;2224;49.814;8.650;2023-06-10T04:23:47;15.87;;;14.57;;
4422;SDS011;2224;49.814;8.650;2023-06-10T04:26:12;15.60;;;14.20;;
4422;SDS011;2224;49.814;8.650;2023-06-10T04:28:38;16.47;;;14.00;;
4422;SDS011;2224;49.814;8.650;2023-06-10T04:31:03;15.47;;;14.17;;
4422;SDS011;2224;49.814;8.650;2023-06-10T04:33:29;14.47;;;13.30;;
4422;SDS011;2224;49.814;8.650;2023-06-10T04:35:55;14.00;;;12.70;;
4422;SDS011;2224;49.814;8.650;2023-06-10T04:38:20;14.70;;;13.40;;
4422;SDS011;2224;49.814;8.650;2023-06-10T04:40:46;15.67;;;14.20;;
4422;SDS011;2224;49.814;8.650;2023-06-10T04:43:11;13.70;;;12.63;;
4422;SDS011;2224;49.814;8.650;2023-06-10T04:45:37;14.90;;;13.70;;
4422;SDS011;2224;49.814;8.650;2023-06-10T04:48:03;15.33;;;14.13;;
4422;SDS011;2224;49.814;8.650;2023-06-10T04:50:28;14.20;;;13.00;;
4422;SDS011;2224;49.814;8.650;2023-06-10T04:52:53;14.23;;;13.00;;
4422;SDS011;2224;49.814;8.650;2023-06-10T04:55:22;15.30;;;13.80;;
4422;SDS011;2224;49.814;8.650;2023-06-10T04:57:47;14.77;;;13.47;;
4422;SDS011;2224;49.814;8.650;2023-06-10T05:00:13;14.87;;;13.27;;
4422;SDS011;2224;49.814;8.650;2023-06-10T05:02:39;14.70;;;13.50;;
4422;SDS011;2224;49.814;8.650;2023-06-10T05:05:04;15.30;;;13.80;;
4422;SDS011;2224;49.814;8.650;2023-06-10T05:07:30;13.20;;;12.00;;
4422;SDS011;2224;49.814;8.650;2023-06-10T05:09:56;14.50;;;13.30;;
4422;SDS011;2224;49.814;8.650;2023-06-10T05:12:21;14.43;;;13.07;;
4422;SDS011;2224;49.814;8.650;2023-06-10T05:14:47;13.90;;;12.63;;
4422;SDS011;2224;49.814;8.650;2023-06-10T05:17:12;13.53;;;12.43;;
4422;SDS011;2224;49.814;8.650;2023-06-10T05:19:38;13.97;;;12.80;;
4422;SDS011;2224;49.814;8.650;2023-06-10T05:22:03;14.20;;;12.90;;
4422;SDS011;2224;49.814;8.650;2023-06-10T05:24:29;14.60;;;13.40;;
4422;SDS011;2224;49.814;8.650;2023-06-10T05:26:54;13.50;;;12.20;;
4422;SDS011;2224;49.814;8.650;2023-06-10T05:29:19;13.03;;;11.90;;
4422;SDS011;2224;49.814;8.650;2023-06-10T05:31:45;13.73;;;12.53;;
4422;SDS011;2224;49.814;8.650;2023-06-10T05:34:10;14.40;;;13.10;;
4422;SDS011;2224;49.814;8.650;2023-06-10T05:36:35;13.50;;;12.30;;
4422;SDS011;2224;49.814;8.650;2023-06-10T05:39:01;14.33;;;12.93;;
4422;SDS011;2224;49.814;8.650;2023-06-10T05:41:26;13.50;;;12.20;;
4422;SDS011;2224;49.814;8.650;2023-06-10T05:43:51;13.97;;;12.87;;
4422;SDS011;2224;49.814;8.650;2023-06-10T05:46:17;12.97;;;11.77;;
4422;SDS011;2224;49.814;8.650;2023-06-10T05:48:42;13.07;;;11.87;;
4422;SDS011;2224;49.814;8.650;2023-06-10T05:51:07;12.43;;;11.43;;
4422;SDS011;2224;49.814;8.650;2023-06-10T05:53:33;12.70;;;11.50;;
4422;SDS011;2224;49.814;8.650;2023-06-10T05:55:58;12.80;;;11.60;;
4422;SDS011;2224;49.814;8.650;2023-06-10T05:58:24;12.80;;;11.67;;
4422;SDS011;2224;49.814;8.650;2023-06-10T06:00:49;13.67;;;12.47;;
4422;SDS011;2224;49.814;8.650;2023-06-10T06:03:15;12.80;;;11.80;;
4422;SDS011;2224;49.814;8.650;2023-06-10T06:05:40;14.17;;;12.87;;
4422;SDS011;2224;49.814;8.650;2023-06-10T06:08:05;12.60;;;11.60;;
4422;SDS011;2224;49.814;8.650;2023-06-10T06:10:31;12.80;;;11.80;;
4422;SDS011;2224;49.814;8.650;2023-06-10T06:12:56;14.00;;;12.80;;
4422;SDS011;2224;49.814;8.650;2023-06-10T06:15:21;12.60;;;11.40;;
4422;SDS011;2224;49.814;8.650;2023-06-10T06:17:47;12.10;;;11.10;;
4422;SDS011;2224;49.814;8.650;2023-06-10T06:20:12;13.03;;;11.83;;
4422;SDS011;2224;49.814;8.650;2023-06-10T06:22:37;13.83;;;12.57;;
4422;SDS011;2224;49.814;8.650;2023-06-10T06:25:03;12.57;;;11.47;;
4422;SDS011;2224;49.814;8.650;2023-06-10T06:27:28;12.60;;;11.50;;
4422;SDS011;2224;49.814;8.650;2023-06-10T06:29:54;12.10;;;11.10;;
4422;SDS011;2224;49.814;8.650;2023-06-10T06:32:19;12.00;;;10.83;;
4422;SDS011;2224;49.814;8.650;2023-06-10T06:34:45;12.20;;;11.30;;
4422;SDS011;2224;49.814;8.650;2023-06-10T06:37:11;13.70;;;12.50;;
4422;SDS011;2224;49.814;8.650;2023-06-10T06:39:36;12.87;;;11.67;;
4422;SDS011;2224;49.814;8.650;2023-06-10T06:42:01;13.40;;;12.20;;
4422;SDS011;2224;49.814;8.650;2023-06-10T06:44:27;11.70;;;10.70;;
4422;SDS011;2224;49.814;8.650;2023-06-10T06:46:53;12.40;;;11.10;;
4422;SDS011;2224;49.814;8.650;2023-06-10T06:49:18;12.33;;;11.03;;
4422;SDS011;2224;49.814;8.650;2023-06-10T06:51:43;11.53;;;10.63;;
4422;SDS011;2224;49.814;8.650;2023-06-10T06:54:09;12.33;;;11.33;;
4422;SDS011;2224;49.814;8.650;2023-06-10T06:56:34;11.00;;;10.10;;
4422;SDS011;2224;49.814;8.650;2023-06-10T06:58:59;12.73;;;11.63;;
4422;SDS011;2224;49.814;8.650;2023-06-10T07:01:25;12.33;;;11.13;;
4422;SDS011;2224;49.814;8.650;2023-06-10T07:03:50;11.47;;;10.57;;
4422;SDS011;2224;49.814;8.650;2023-06-10T07:06:15;11.90;;;10.80;;
4422;SDS011;2224;49.814;8.650;2023-06-10T07:08:41;11.67;;;10.53;;
4422;SDS011;2224;49.814;8.650;2023-06-10T07:11:06;12.10;;;11.00;;
4422;SDS011;2224;49.814;8.650;2023-06-10T07:13:31;11.97;;;10.97;;
4422;SDS011;2224;49.814;8.650;2023-06-10T07:15:56;12.47;;;11.47;;
4422;SDS011;2224;49.814;8.650;2023-06-10T07:18:22;12.60;;;11.50;;
4422;SDS011;2224;49.814;8.650;2023-06-10T07:20:47;12.23;;;11.27;;
4422;SDS011;2224;49.814;8.650;2023-06-10T07:23:12;11.43;;;10.40;;
4422;SDS011;2224;49.814;8.650;2023-06-10T07:25:38;15.20;;;10.57;;
4422;SDS011;2224;49.814;8.650;2023-06-10T07:28:03;12.40;;;11.30;;
4422;SDS011;2224;49.814;8.650;2023-06-10T07:30:28;12.20;;;11.10;;
4422;SDS011;2224;49.814;8.650;2023-06-10T07:32:54;11.53;;;10.63;;
4422;SDS011;2224;49.814;8.650;2023-06-10T07:35:20;11.27;;;10.37;;
4422;SDS011;2224;49.814;8.650;2023-06-10T07:37:46;11.90;;;10.80;;
4422;SDS011;2224;49.814;8.650;2023-06-10T07:40:11;11.90;;;10.97;;
4422;SDS011;2224;49.814;8.650;2023-06-10T07:42:36;11.73;;;10.60;;
4422;SDS011;2224;49.814;8.650;2023-06-10T07:45:05;11.07;;;10.03;;
4422;SDS011;2224;49.814;8.650;2023-06-10T07:47:32;11.60;;;10.47;;
4422;SDS011;2224;49.814;8.650;2023-06-10T07:49:58;11.60;;;10.60;;
4422;SDS011;2224;49.814;8.650;2023-06-10T07:52:24;10.50;;;9.60;;
4422;SDS011;2224;49.814;8.650;2023-06-10T07:54:50;11.60;;;10.50;;
4422;SDS011;2224;49.814;8.650;2023-06-10T07:57:16;11.93;;;10.70;;
4422;SDS011;2224;49.814;8.650;2023-06-10T07:59:41;12.40;;;11.10;;
4422;SDS011;2224;49.814;8.650;2023-06-10T08:02:06;12.47;;;11.37;;
4422;SDS011;2224;49.814;8.650;2023-06-10T08:04:32;12.33;;;11.30;;
4422;SDS011;2224;49.814;8.650;2023-06-10T08:07:00;11.90;;;11.00;;
4422;SDS011;2224;49.814;8.650;2023-06-10T08:09:25;11.80;;;10.70;;
4422;SDS011;2224;49.814;8.650;2023-06-10T08:11:50;12.50;;;11.40;;
4422;SDS011;2224;49.814;8.650;2023-06-10T08:14:16;11.60;;;10.50;;
4422;SDS011;2224;49.814;8.650;2023-06-10T08:16:41;12.47;;;11.47;;
4422;SDS011;2224;49.814;8.650;2023-06-10T08:19:08;11.33;;;10.33;;
4422;SDS011;2224;49.814;8.650;2023-06-10T08:21:34;13.73;;;11.20;;
4422;SDS011;2224;49.814;8.650;2023-06-10T08:24:01;11.83;;;10.93;;
4422;SDS011;2224;49.814;8.650;2023-06-10T08:26:27;12.53;;;11.53;;
4422;SDS011;2224;49.814;8.650;2023-06-10T08:28:52;11.90;;;10.87;;
4422;SDS011;2224;49.814;8.650;2023-06-10T08:31:17;11.73;;;10.53;;
4422;SDS011;2224;49.814;8.650;2023-06-10T08:33:43;12.83;;;11.63;;
4422;SDS011;2224;49.814;8.650;2023-06-10T08:36:08;12.80;;;11.80;;
4422;SDS011;2224;49.814;8.650;2023-06-10T08:38:33;11.70;;;10.73;;
4422;SDS011;2224;49.814;8.650;2023-06-10T08:40:59;13.50;;;11.80;;
4422;SDS011;2224;49.814;8.650;2023-06-10T08:45:59;12.40;;;11.30;;
4422;SDS011;2224;49.814;8.650;2023-06-10T08:48:27;12.20;;;11.23;;
4422;SDS011;2224;49.814;8.650;2023-06-10T08:50:55;13.57;;;12.37;;
4422;SDS011;2224;49.814;8.650;2023-06-10T08:53:20;13.40;;;12.20;;
4422;SDS011;2224;49.814;8.650;2023-06-10T08:55:46;13.00;;;11.90;;
4422;SDS011;2224;49.814;8.650;2023-06-10T08:58:17;13.60;;;12.30;;
4422;SDS011;2224;49.814;8.650;2023-06-10T09:00:43;12.40;;;11.30;;
4422;SDS011;2224;49.814;8.650;2023-06-10T09:03:09;12.60;;;11.60;;
4422;SDS011;2224;49.814;8.650;2023-06-10T09:05:34;14.10;;;12.70;;
4422;SDS011;2224;49.814;8.650;2023-06-10T09:08:01;13.13;;;12.07;;
4422;SDS011;2224;49.814;8.650;2023-06-10T09:10:27;12.60;;;11.60;;
4422;SDS011;2224;49.814;8.650;2023-06-10T09:12:52;11.67;;;10.60;;
4422;SDS011;2224;49.814;8.650;2023-06-10T09:15:18;11.43;;;10.23;;
4422;SDS011;2224;49.814;8.650;2023-06-10T09:17:43;12.30;;;11.10;;
4422;SDS011;2224;49.814;8.650;2023-06-10T09:20:10;11.60;;;10.70;;
4422;SDS011;2224;49.814;8.650;2023-06-10T09:22:35;11.93;;;10.83;;
4422;SDS011;2224;49.814;8.650;2023-06-10T09:25:08;12.87;;;11.57;;
4422;SDS011;2224;49.814;8.650;2023-06-10T09:27:56;12.13;;;11.17;;
4422;SDS011;2224;49.814;8.650;2023-06-10T09:32:56;12.90;;;11.87;;
4422;SDS011;2224;49.814;8.650;2023-06-10T09:35:23;11.57;;;10.57;;
4422;SDS011;2224;49.814;8.650;2023-06-10T09:37:53;11.20;;;10.30;;
4422;SDS011;2224;49.814;8.650;2023-06-10T09:40:20;11.83;;;10.83;;
4422;SDS011;2224;49.814;8.650;2023-06-10T09:42:46;12.57;;;10.97;;
4422;SDS011;2224;49.814;8.650;2023-06-10T09:45:18;10.40;;;9.47;;
4422;SDS011;2224;49.814;8.650;2023-06-10T09:47:45;11.40;;;10.40;;
4422;SDS011;2224;49.814;8.650;2023-06-10T09:50:11;12.87;;;11.77;;
4422;SDS011;2224;49.814;8.650;2023-06-10T09:52:36;11.30;;;10.30;;
4422;SDS011;2224;49.814;8.650;2023-06-10T09:55:02;10.67;;;9.77;;
4422;SDS011;2224;49.814;8.650;2023-06-10T09:57:30;9.40;;;8.70;;
4422;SDS011;2224;49.814;8.650;2023-06-10T09:59:56;10.37;;;9.47;;
4422;SDS011;2224;49.814;8.650;2023-06-10T10:02:21;10.73;;;9.83;;
4422;SDS011;2224;49.814;8.650;2023-06-10T10:04:46;11.13;;;10.23;;
4422;SDS011;2224;49.814;8.650;2023-06-10T10:07:12;11.30;;;10.20;;
4422;SDS011;2224;49.814;8.650;2023-06-10T10:09:38;11.40;;;10.33;;
4422;SDS011;2224;49.814;8.650;2023-06-10T10:12:11;11.53;;;10.53;;
4422;SDS011;2224;49.814;8.650;2023-06-10T10:14:40;11.40;;;10.43;;
4422;SDS011;2224;49.814;8.650;2023-06-10T10:17:10;13.00;;;10.83;;
4422;SDS011;2224;49.814;8.650;2023-06-10T10:19:42;13.30;;;9.70;;
4422;SDS011;2224;49.814;8.650;2023-06-10T10:22:19;12.40;;;11.40;;
4422;SDS011;2224;49.814;8.650;2023-06-10T10:24:52;10.50;;;9.70;;
4422;SDS011;2224;49.814;8.650;2023-06-10T10:27:26;10.80;;;10.00;;
4422;SDS011;2224;49.814;8.650;2023-06-10T10:29:53;10.87;;;9.97;;
4422;SDS011;2224;49.814;8.650;2023-06-10T10:32:29;11.30;;;10.30;;
4422;SDS011;2224;49.814;8.650;2023-06-10T10:35:01;11.60;;;10.70;;
4422;SDS011;2224;49.814;8.650;2023-06-10T10:37:32;11.50;;;10.63;;
4422;SDS011;2224;49.814;8.650;2023-06-10T10:39:58;11.27;;;10.27;;
4422;SDS011;2224;49.814;8.650;2023-06-10T10:42:24;10.90;;;9.90;;
4422;SDS011;2224;49.814;8.650;2023-06-10T10:44:49;11.17;;;10.17;;
4422;SDS011;2224;49.814;8.650;2023-06-10T10:47:17;10.53;;;9.30;;
4422;SDS011;2224;49.814;8.650;2023-06-10T10:49:45;9.83;;;8.40;;
4422;SDS011;2224;49.814;8.650;2023-06-10T10:52:11;9.53;;;8.83;;
4422;SDS011;2224;49.814;8.650;2023-06-10T10:54:37;9.63;;;8.50;;
4422;SDS011;2224;49.814;8.650;2023-06-10T10:59:45;9.80;;;7.53;;
4422;SDS011;2224;49.814;8.650;2023-06-10T11:02:15;8.63;;;7.93;;
4422;SDS011;2224;49.814;8.650;2023-06-10T11:04:46;8.13;;;7.53;;
4422;SDS011;2224;49.814;8.650;2023-06-10T11:07:13;8.13;;;7.37;;
4422;SDS011;2224;49.814;8.650;2023-06-10T11:09:57;8.07;;;7.23;;
4422;SDS011;2224;49.814;8.650;2023-06-10T11:12:24;7.60;;;7.00;;
4422;SDS011;2224;49.814;8.650;2023-06-10T11:14:53;6.63;;;6.13;;
4422;SDS011;2224;49.814;8.650;2023-06-10T11:17:20;6.70;;;6.07;;
4422;SDS011;2224;49.814;8.650;2023-06-10T11:19:45;7.40;;;6.80;;
4422;SDS011;2224;49.814;8.650;2023-06-10T11:22:15;7.00;;;6.40;;
4422;SDS011;2224;49.814;8.650;2023-06-10T11:24:41;7.53;;;6.93;;
4422;SDS011;2224;49.814;8.650;2023-06-10T11:32:48;7.17;;;6.47;;
4422;SDS011;2224;49.814;8.650;2023-06-10T11:35:16;6.90;;;6.30;;
4422;SDS011;2224;49.814;8.650;2023-06-10T11:37:41;6.83;;;6.30;;
4422;SDS011;2224;49.814;8.650;2023-06-10T11:40:07;8.10;;;5.73;;
4422;SDS011;2224;49.814;8.650;2023-06-10T11:42:34;6.60;;;6.10;;
4422;SDS011;2224;49.814;8.650;2023-06-10T11:45:04;6.40;;;5.80;;
4422;SDS011;2224;49.814;8.650;2023-06-10T11:47:33;6.40;;;5.80;;
4422;SDS011;2224;49.814;8.650;2023-06-10T11:49:58;8.10;;;5.80;;
4422;SDS011;2224;49.814;8.650;2023-06-10T11:52:27;6.20;;;5.80;;
4422;SDS011;2224;49.814;8.650;2023-06-10T11:54:56;6.50;;;5.90;;
4422;SDS011;2224;49.814;8.650;2023-06-10T11:57:21;6.37;;;5.97;;
4422;SDS011;2224;49.814;8.650;2023-06-10T11:59:47;6.60;;;6.00;;
4422;SDS011;2224;49.814;8.650;2023-06-10T12:02:16;6.10;;;5.60;;
4422;SDS011;2224;49.814;8.650;2023-06-10T12:04:41;6.40;;;5.90;;
4422;SDS011;2224;49.814;8.650;2023-06-10T12:07:07;7.07;;;6.47;;
4422;SDS011;2224;49.814;8.650;2023-06-10T12:09:32;6.80;;;6.10;;
4422;SDS011;2224;49.814;8.650;2023-06-10T12:12:04;7.40;;;6.80;;
4422;SDS011;2224;49.814;8.650;2023-06-10T12:17:22;5.83;;;5.43;;
4422;SDS011;2224;49.814;8.650;2023-06-10T12:19:57;6.53;;;5.93;;
4422;SDS011;2224;49.814;8.650;2023-06-10T12:22:23;6.87;;;6.10;;
4422;SDS011;2224;49.814;8.650;2023-06-10T12:25:00;7.10;;;6.37;;
4422;SDS011;2224;49.814;8.650;2023-06-10T12:27:28;7.10;;;6.40;;
4422;SDS011;2224;49.814;8.650;2023-06-10T12:29:55;7.00;;;6.50;;
4422;SDS011;2224;49.814;8.650;2023-06-10T12:32:34;6.63;;;6.13;;
4422;SDS011;2224;49.814;8.650;2023-06-10T12:35:07;9.30;;;6.60;;
4422;SDS011;2224;49.814;8.650;2023-06-10T12:37:33;6.77;;;6.20;;
4422;SDS011;2224;49.814;8.650;2023-06-10T12:40:00;7.23;;;6.63;;
4422;SDS011;2224;49.814;8.650;2023-06-10T12:42:26;6.63;;;6.13;;
4422;SDS011;2224;49.814;8.650;2023-06-10T12:44:54;6.53;;;6.03;;
4422;SDS011;2224;49.814;8.650;2023-06-10T12:47:21;5.70;;;5.30;;
4422;SDS011;2224;49.814;8.650;2023-06-10T12:50:01;7.97;;;6.90;;
4422;SDS011;2224;49.814;8.650;2023-06-10T12:52:28;7.03;;;6.37;;
4422;SDS011;2224;49.814;8.650;2023-06-10T12:54:53;7.03;;;6.53;;
4422;SDS011;2224;49.814;8.650;2023-06-10T12:57:19;7.97;;;7.27;;
4422;SDS011;2224;49.814;8.650;2023-06-10T12:59:45;7.77;;;7.07;;
4422;SDS011;2224;49.814;8.650;2023-06-10T13:02:15;7.10;;;6.50;;
4422;SDS011;2224;49.814;8.650;2023-06-10T13:04:41;6.40;;;5.90;;
4422;SDS011;2224;49.814;8.650;2023-06-10T13:07:07;7.00;;;6.40;;
4422;SDS011;2224;49.814;8.650;2023-06-10T13:09:32;7.63;;;6.87;;
4422;SDS011;2224;49.814;8.650;2023-06-10T13:11:58;7.23;;;6.63;;
4422;SDS011;2224;49.814;8.650;2023-06-10T13:14:24;7.20;;;6.60;;
4422;SDS011;2224;49.814;8.650;2023-06-10T13:16:50;6.53;;;6.03;;
4422;SDS011;2224;49.814;8.650;2023-06-10T13:19:15;6.90;;;6.40;;
4422;SDS011;2224;49.814;8.650;2023-06-10T13:21:41;7.37;;;6.87;;
4422;SDS011;2224;49.814;8.650;2023-06-10T13:24:06;6.57;;;6.10;;
4422;SDS011;2224;49.814;8.650;2023-06-10T13:26:32;8.00;;;6.03;;
4422;SDS011;2224;49.814;8.650;2023-06-10T13:28:57;6.87;;;6.37;;
4422;SDS011;2224;49.814;8.650;2023-06-10T13:31:23;6.57;;;6.00;;
4422;SDS011;2224;49.814;8.650;2023-06-10T13:33:48;6.73;;;6.10;;
4422;SDS011;2224;49.814;8.650;2023-06-10T13:36:13;6.33;;;5.73;;
4422;SDS011;2224;49.814;8.650;2023-06-10T13:38:39;6.70;;;6.20;;
4422;SDS011;2224;49.814;8.650;2023-06-10T13:41:04;6.73;;;6.10;;
4422;SDS011;2224;49.814;8.650;2023-06-10T13:43:29;6.23;;;5.73;;
4422;SDS011;2224;49.814;8.650;2023-06-10T13:45:55;6.57;;;6.10;;
4422;SDS011;2224;49.814;8.650;2023-06-10T13:48:20;7.17;;;6.60;;
4422;SDS011;2224;49.814;8.650;2023-06-10T13:50:46;6.00;;;5.60;;
4422;SDS011;2224;49.814;8.650;2023-06-10T13:53:12;6.40;;;5.73;;
4422;SDS011;2224;49.814;8.650;2023-06-10T13:55:37;7.30;;;6.60;;
4422;SDS011;2224;49.814;8.650;2023-06-10T13:58:03;6.37;;;5.83;;
4422;SDS011;2224;49.814;8.650;2023-06-10T14:00:28;6.40;;;5.90;;
4422;SDS011;2224;49.814;8.650;2023-06-10T14:02:54;7.00;;;6.50;;
4422;SDS011;2224;49.814;8.650;2023-06-10T14:05:19;6.17;;;5.70;;
4422;SDS011;2224;49.814;8.650;2023-06-10T14:07:44;7.23;;;6.63;;
4422;SDS011;2224;49.814;8.650;2023-06-10T14:10:10;6.87;;;6.37;;
4422;SDS011;2224;49.814;8.650;2023-06-10T14:12:35;6.97;;;6.37;;
4422;SDS011;2224;49.814;8.650;2023-06-10T14:15:01;6.60;;;6.10;;
4422;SDS011;2224;49.814;8.650;2023-06-10T14:17:26;7.07;;;6.57;;
4422;SDS011;2224;49.814;8.650;2023-06-10T14:19:52;6.70;;;6.03;;
4422;SDS011;2224;49.814;8.650;2023-06-10T14:22:17;5.90;;;5.50;;
4422;SDS011;2224;49.814;8.650;2023-06-10T14:24:42;6.07;;;5.67;;
4422;SDS011;2224;49.814;8.650;2023-06-10T14:27:08;6.43;;;6.00;;
4422;SDS011;2224;49.814;8.650;2023-06-10T14:29:33;6.97;;;6.37;;
4422;SDS011;2224;49.814;8.650;2023-06-10T14:31:59;8.07;;;7.27;;
4422;SDS011;2224;49.814;8.650;2023-06-10T14:34:24;6.40;;;6.00;;
4422;SDS011;2224;49.814;8.650;2023-06-10T14:36:53;7.00;;;6.40;;
4422;SDS011;2224;49.814;8.650;2023-06-10T14:39:19;7.13;;;6.73;;
4422;SDS011;2224;49.814;8.650;2023-06-10T14:41:44;7.37;;;6.87;;
4422;SDS011;2224;49.814;8.650;2023-06-10T14:44:10;6.40;;;5.90;;
4422;SDS011;2224;49.814;8.650;2023-06-10T14:46:35;8.40;;;7.60;;
4422;SDS011;2224;49.814;8.650;2023-06-10T14:49:00;6.70;;;6.20;;
4422;SDS011;2224;49.814;8.650;2023-06-10T14:51:27;7.50;;;7.00;;
4422;SDS011;2224;49.814;8.650;2023-06-10T14:53:52;6.97;;;6.50;;
4422;SDS011;2224;49.814;8.650;2023-06-10T14:56:18;7.00;;;6.40;;
4422;SDS011;2224;49.814;8.650;2023-06-10T14:58:43;6.20;;;5.70;;
4422;SDS011;2224;49.814;8.650;2023-06-10T15:01:08;6.37;;;5.87;;
4422;SDS011;2224;49.814;8.650;2023-06-10T15:03:34;6.47;;;5.97;;
4422;SDS011;2224;49.814;8.650;2023-06-10T15:06:00;6.87;;;6.27;;
4422;SDS011;2224;49.814;8.650;2023-06-10T15:08:28;6.40;;;5.90;;
4422;SDS011;2224;49.814;8.650;2023-06-10T15:10:53;5.97;;;5.40;;
4422;SDS011;2224;49.814;8.650;2023-06-10T15:13:19;7.90;;;6.07;;
4422;SDS011;2224;49.814;8.650;2023-06-10T15:15:44;7.13;;;6.20;;